createdAt,value
2023-05-30T00:02:22.273Z,-144.75
2023-05-30T00:04:49.028Z,-144.75
2023-05-30T00:07:16.174Z,-144.75
2023-05-30T00:09:42.944Z,-144.75
2023-05-30T00:12:09.864Z,-144.75
2023-05-30T00:14:38.159Z,-144.75
2023-05-30T00:17:06.398Z,-144.75
2023-05-30T00:19:33.148Z,-144.75
2023-05-30T00:21:59.852Z,-144.75
2023-05-30T00:24:27.066Z,-144.75
2023-05-30T00:26:53.750Z,-144.75
2023-05-30T00:29:20.760Z,-144.75
2023-05-30T00:31:47.577Z,-144.75
2023-05-30T00:34:14.365Z,-144.75
2023-05-30T00:36:41.000Z,-144.75
2023-05-30T00:39:08.174Z,-144.75
2023-05-30T00:41:34.843Z,-144.75
2023-05-30T00:44:01.643Z,-144.75
2023-05-30T00:46:30.894Z,-144.75
2023-05-30T00:49:00.792Z,-144.75
2023-05-30T00:51:31.068Z,-144.75
2023-05-30T00:53:59.204Z,-144.75
2023-05-30T00:56:27.662Z,-144.75
2023-05-30T00:58:54.472Z,-144.75
2023-05-30T01:01:21.960Z,-144.75
2023-05-30T01:03:49.279Z,-144.75
2023-05-30T01:06:16.342Z,-144.75
2023-05-30T01:08:42.969Z,-144.75
2023-05-30T01:11:18.616Z,-144.75
2023-05-30T01:13:59.791Z,-144.75
2023-05-30T01:16:32.949Z,-144.75
2023-05-30T01:19:25.366Z,-144.75
2023-05-30T01:22:00.921Z,-144.75
2023-05-30T01:24:42.386Z,-144.75
2023-05-30T01:27:16.491Z,-144.75
2023-05-30T01:29:44.076Z,-144.75
2023-05-30T01:32:11.063Z,-144.75
2023-05-30T01:34:38.585Z,-144.75
2023-05-30T01:37:05.644Z,-144.75
2023-05-30T01:39:32.288Z,-144.75
2023-05-30T01:42:09.626Z,-144.75
2023-05-30T01:45:15.053Z,-144.75
2023-05-30T01:47:59.150Z,-144.75
2023-05-30T01:50:33.318Z,-144.75
2023-05-30T01:53:01.040Z,-144.75
2023-05-30T01:55:31.888Z,-144.75
2023-05-30T01:57:59.447Z,-144.75
2023-05-30T02:00:26.979Z,-144.75
2023-05-30T02:02:54.018Z,-144.75
2023-05-30T02:05:20.777Z,-144.75
2023-05-30T02:07:47.456Z,-144.75
2023-05-30T02:10:14.194Z,-144.75
2023-05-30T02:12:43.300Z,-144.75
2023-05-30T02:15:10.345Z,-144.75
2023-05-30T02:17:37.545Z,-144.75
2023-05-30T02:20:04.613Z,-144.75
2023-05-30T02:22:31.326Z,-144.75
2023-05-30T02:25:00.459Z,-144.75
2023-05-30T02:27:27.130Z,-144.75
2023-05-30T02:29:53.890Z,-144.75
2023-05-30T02:32:20.682Z,-144.75
2023-05-30T02:34:47.493Z,-144.75
2023-05-30T02:37:14.130Z,-144.75
2023-05-30T02:39:40.895Z,-144.75
2023-05-30T02:42:08.229Z,-144.75
2023-05-30T02:44:34.938Z,-144.75
2023-05-30T02:47:01.696Z,-144.75
2023-05-30T02:49:28.705Z,-144.75
2023-05-30T02:51:55.935Z,-144.75
2023-05-30T02:54:22.578Z,-144.75
2023-05-30T02:56:49.174Z,-144.75
2023-05-30T02:59:16.145Z,-144.75
2023-05-30T03:01:42.876Z,-144.75
2023-05-30T03:04:09.520Z,-144.75
2023-05-30T03:06:37.287Z,-144.75
2023-05-30T03:09:05.047Z,-144.75
2023-05-30T03:11:31.650Z,-144.75
2023-05-30T03:13:58.364Z,-144.75
2023-05-30T03:16:25.055Z,-144.75
2023-05-30T03:18:51.893Z,-144.75
2023-05-30T03:21:18.609Z,-144.75
2023-05-30T03:23:45.293Z,-144.75
2023-05-30T03:26:11.914Z,-144.75
2023-05-30T03:28:38.594Z,-144.75
2023-05-30T03:31:07.850Z,-144.75
2023-05-30T03:33:34.633Z,-144.75
2023-05-30T03:36:01.664Z,-144.75
2023-05-30T03:38:28.287Z,-144.75
2023-05-30T03:40:55.087Z,-144.75
2023-05-30T03:43:36.934Z,-144.75
2023-05-30T03:46:03.706Z,-144.75
2023-05-30T03:48:30.429Z,-144.75
2023-05-30T03:50:57.337Z,-144.75
2023-05-30T03:53:24.186Z,-144.75
2023-05-30T03:55:51.111Z,-144.75
2023-05-30T03:58:17.727Z,-144.75
2023-05-30T04:00:44.424Z,-144.75
2023-05-30T04:03:11.490Z,-144.75
2023-05-30T04:05:38.159Z,-144.75
2023-05-30T04:08:18.859Z,-144.75
2023-05-30T04:10:46.030Z,-144.75
2023-05-30T04:13:37.044Z,-144.75
2023-05-30T04:16:14.067Z,-144.75
2023-05-30T04:18:45.922Z,-144.75
2023-05-30T04:21:16.062Z,-144.75
2023-05-30T04:24:25.895Z,-144.75
2023-05-30T04:29:48.880Z,-144.75
2023-05-30T04:32:18.486Z,-144.75
2023-05-30T04:34:50.552Z,-144.75
2023-05-30T04:37:19.385Z,-144.75
2023-05-30T04:39:46.259Z,-144.75
2023-05-30T04:42:19.039Z,-144.75
2023-05-30T04:44:52.330Z,-144.75
2023-05-30T04:47:19.053Z,-144.75
2023-05-30T04:49:46.924Z,-144.75
2023-05-30T04:52:13.783Z,-144.75
2023-05-30T04:54:41.022Z,-144.75
2023-05-30T04:57:07.856Z,-144.75
2023-05-30T04:59:34.779Z,-144.75
2023-05-30T05:02:01.633Z,-144.75
2023-05-30T05:04:28.293Z,-144.75
2023-05-30T05:06:54.945Z,-144.75
2023-05-30T05:09:23.517Z,-144.75
2023-05-30T05:11:50.163Z,-144.75
2023-05-30T05:14:16.873Z,-144.75
2023-05-30T05:16:43.641Z,-144.75
2023-05-30T05:19:10.288Z,-144.75
2023-05-30T05:21:38.075Z,-144.75
2023-05-30T05:24:05.139Z,-144.75
2023-05-30T05:26:31.708Z,-144.75
2023-05-30T05:28:58.322Z,-144.75
2023-05-30T05:31:25.984Z,-144.75
2023-05-30T05:33:55.105Z,-144.75
2023-05-30T05:36:22.912Z,-144.75
2023-05-30T05:38:49.639Z,-144.75
2023-05-30T05:41:17.116Z,-144.75
2023-05-30T05:43:43.796Z,-144.75
2023-05-30T05:46:12.927Z,-144.75
2023-05-30T05:48:39.591Z,-144.75
2023-05-30T05:51:06.255Z,-144.75
2023-05-30T05:53:32.896Z,-144.75
2023-05-30T05:58:29.701Z,16.33
2023-05-30T06:00:56.739Z,16.29
2023-05-30T06:03:23.782Z,16.37
2023-05-30T06:05:50.571Z,16.18
2023-05-30T06:08:17.333Z,16.40
2023-05-30T06:10:44.141Z,16.54
2023-05-30T06:13:10.807Z,16.52
2023-05-30T06:15:37.492Z,16.70
2023-05-30T06:18:04.981Z,16.73
2023-05-30T06:20:31.711Z,16.66
2023-05-30T06:22:58.425Z,16.75
2023-05-30T06:25:27.267Z,16.80
2023-05-30T06:27:53.967Z,16.81
2023-05-30T06:30:20.785Z,17.05
2023-05-30T06:32:47.481Z,17.11
2023-05-30T06:35:14.200Z,17.17
2023-05-30T06:37:40.938Z,17.28
2023-05-30T06:40:08.499Z,17.24
2023-05-30T06:42:36.057Z,17.51
2023-05-30T06:45:02.716Z,17.70
2023-05-30T06:47:29.404Z,17.98
2023-05-30T06:49:56.362Z,18.10
2023-05-30T06:52:23.200Z,18.18
2023-05-30T06:54:49.823Z,18.04
2023-05-30T06:57:16.504Z,18.10
2023-05-30T06:59:43.339Z,18.12
2023-05-30T07:02:11.352Z,18.11
2023-05-30T07:04:38.198Z,18.16
2023-05-30T07:07:05.510Z,18.33
2023-05-30T07:09:34.983Z,18.28
2023-05-30T07:12:02.056Z,18.48
2023-05-30T07:14:28.790Z,18.66
2023-05-30T07:16:55.570Z,18.91
2023-05-30T07:19:22.263Z,19.03
2023-05-30T07:21:49.224Z,19.15
2023-05-30T07:24:15.919Z,19.37
2023-05-30T07:26:42.589Z,19.35
2023-05-30T07:29:09.382Z,19.37
2023-05-30T07:31:36.128Z,19.40
2023-05-30T07:34:02.901Z,19.45
2023-05-30T07:36:29.604Z,19.53
2023-05-30T07:38:56.302Z,19.64
2023-05-30T07:41:27.813Z,19.65
2023-05-30T07:43:57.371Z,19.65
2023-05-30T07:46:24.414Z,19.37
2023-05-30T07:48:51.164Z,19.69
2023-05-30T07:51:18.909Z,19.91
2023-05-30T07:53:47.418Z,19.97
2023-05-30T07:56:16.808Z,20.04
2023-05-30T07:58:46.710Z,20.03
2023-05-30T08:01:15.883Z,20.01
2023-05-30T08:03:42.762Z,20.16
2023-05-30T08:06:09.482Z,20.22
2023-05-30T08:08:36.482Z,20.32
2023-05-30T08:11:03.206Z,20.35
2023-05-30T08:13:32.836Z,20.31
2023-05-30T08:16:03.649Z,20.40
2023-05-30T08:18:33.186Z,20.70
2023-05-30T08:21:03.733Z,20.68
2023-05-30T08:23:38.312Z,20.77
2023-05-30T08:26:10.229Z,20.76
2023-05-30T08:28:38.202Z,20.80
2023-05-30T08:31:08.971Z,20.80
2023-05-30T08:33:37.700Z,21.03
2023-05-30T08:36:04.431Z,21.03
2023-05-30T08:38:35.656Z,21.16
2023-05-30T08:41:02.370Z,21.35
2023-05-30T08:43:29.187Z,21.39
2023-05-30T08:45:56.749Z,21.43
2023-05-30T08:48:27.396Z,21.47
2023-05-30T08:50:54.246Z,21.65
2023-05-30T08:53:31.685Z,21.65
2023-05-30T08:56:29.575Z,21.65
2023-05-30T08:58:59.588Z,21.94
2023-05-30T09:01:28.458Z,21.89
2023-05-30T09:03:57.378Z,21.97
2023-05-30T09:06:27.028Z,21.89
2023-05-30T09:08:55.375Z,21.82
2023-05-30T09:11:24.647Z,21.93
2023-05-30T09:13:54.353Z,21.91
2023-05-30T09:16:21.098Z,22.03
2023-05-30T09:18:47.765Z,22.08
2023-05-30T09:21:16.801Z,22.21
2023-05-30T09:23:43.712Z,22.22
2023-05-30T09:26:15.341Z,22.32
2023-05-30T09:28:49.244Z,22.42
2023-05-30T09:31:17.344Z,22.44
2023-05-30T09:33:50.425Z,22.33
2023-05-30T09:36:21.171Z,22.28
2023-05-30T09:38:59.774Z,22.31
2023-05-30T09:41:28.104Z,22.41
2023-05-30T09:43:55.661Z,22.59
2023-05-30T09:46:25.150Z,22.66
2023-05-30T09:48:52.583Z,22.58
2023-05-30T09:51:21.321Z,22.57
2023-05-30T09:54:05.570Z,22.74
2023-05-30T09:56:39.363Z,22.76
2023-05-30T09:59:11.484Z,22.82
2023-05-30T10:01:38.634Z,22.96
2023-05-30T10:04:17.426Z,22.99
2023-05-30T10:06:47.246Z,22.94
2023-05-30T10:09:14.402Z,23.10
2023-05-30T10:11:43.369Z,23.13
2023-05-30T10:14:11.616Z,23.02
2023-05-30T10:16:54.479Z,23.29
2023-05-30T10:19:36.303Z,23.40
2023-05-30T10:22:08.044Z,23.49
2023-05-30T10:24:39.031Z,23.98
2023-05-30T10:27:12.429Z,24.18
2023-05-30T10:29:49.139Z,23.70
2023-05-30T10:32:25.616Z,24.07
2023-05-30T10:35:00.548Z,24.58
2023-05-30T10:37:27.832Z,24.52
2023-05-30T10:40:13.861Z,24.12
2023-05-30T10:43:06.693Z,24.23
2023-05-30T10:46:10.240Z,24.34
2023-05-30T10:48:51.624Z,24.07
2023-05-30T10:51:21.342Z,24.31
2023-05-30T10:53:51.612Z,24.28
2023-05-30T10:56:27.606Z,24.16
2023-05-30T10:58:54.924Z,24.26
2023-05-30T11:01:36.113Z,24.23
2023-05-30T11:04:07.667Z,24.27
2023-05-30T11:06:45.812Z,24.49
2023-05-30T11:09:19.434Z,24.33
2023-05-30T11:11:48.509Z,24.37
2023-05-30T11:14:16.414Z,24.13
2023-05-30T11:16:55.947Z,24.40
2023-05-30T11:19:27.999Z,24.64
2023-05-30T11:22:02.386Z,24.70
2023-05-30T11:24:31.459Z,24.84
2023-05-30T11:27:06.747Z,24.77
2023-05-30T11:29:45.097Z,24.88
2023-05-30T11:32:13.149Z,25.00
2023-05-30T11:34:39.889Z,25.06
2023-05-30T11:37:07.227Z,24.91
2023-05-30T11:39:37.930Z,25.11
2023-05-30T11:42:06.762Z,25.54
2023-05-30T11:44:33.528Z,25.77
2023-05-30T11:47:31.578Z,25.91
2023-05-30T11:50:00.134Z,26.39
2023-05-30T11:52:26.861Z,26.46
2023-05-30T11:55:00.110Z,26.54
2023-05-30T11:57:28.228Z,26.37
2023-05-30T11:59:55.760Z,25.91
2023-05-30T12:02:33.658Z,25.91
2023-05-30T12:05:03.189Z,26.06
2023-05-30T12:07:36.061Z,26.20
2023-05-30T12:10:03.249Z,26.45
2023-05-30T12:12:32.228Z,26.34
2023-05-30T12:15:00.303Z,26.59
2023-05-30T12:17:27.602Z,26.57
2023-05-30T12:20:07.795Z,26.99
2023-05-30T12:22:34.646Z,27.36
2023-05-30T12:25:10.556Z,28.25
2023-05-30T12:27:43.300Z,28.41
2023-05-30T12:30:19.813Z,28.34
2023-05-30T12:32:46.910Z,28.16
2023-05-30T12:35:14.841Z,28.40
2023-05-30T12:37:41.724Z,28.29
2023-05-30T12:40:09.061Z,28.23
2023-05-30T12:42:39.070Z,27.70
2023-05-30T12:45:08.265Z,27.92
2023-05-30T12:47:38.925Z,28.30
2023-05-30T12:50:07.361Z,28.30
2023-05-30T12:52:34.087Z,27.82
2023-05-30T12:55:00.784Z,27.70
2023-05-30T12:57:27.724Z,27.99
2023-05-30T12:59:55.897Z,28.32
2023-05-30T13:02:26.201Z,28.71
2023-05-30T13:04:54.283Z,29.03
2023-05-30T13:07:21.655Z,29.08
2023-05-30T13:09:48.773Z,29.14
2023-05-30T13:12:16.079Z,29.06
2023-05-30T13:14:45.145Z,29.47
2023-05-30T13:17:12.532Z,29.88
2023-05-30T13:19:39.520Z,29.78
2023-05-30T13:22:08.993Z,30.05
2023-05-30T13:24:36.330Z,30.19
2023-05-30T13:27:03.185Z,29.51
2023-05-30T13:29:29.876Z,28.59
2023-05-30T13:31:56.597Z,27.62
2023-05-30T13:34:23.411Z,27.71
2023-05-30T13:36:50.279Z,28.91
2023-05-30T13:39:16.973Z,29.22
2023-05-30T13:41:43.690Z,30.00
2023-05-30T13:44:10.341Z,29.73
2023-05-30T13:49:07.233Z,28.90
2023-05-30T13:51:35.034Z,29.61
2023-05-30T13:54:05.455Z,29.45
2023-05-30T13:56:32.373Z,29.80
2023-05-30T13:58:59.721Z,30.17
2023-05-30T14:01:32.631Z,29.73
2023-05-30T14:04:01.075Z,29.08
2023-05-30T14:06:28.245Z,29.63
2023-05-30T14:08:55.433Z,29.45
2023-05-30T14:11:22.913Z,29.99
2023-05-30T14:13:50.544Z,29.88
2023-05-30T14:16:17.669Z,30.57
2023-05-30T14:18:47.820Z,31.01
2023-05-30T14:21:15.184Z,30.70
2023-05-30T14:23:41.833Z,31.14
2023-05-30T14:26:08.566Z,31.55
2023-05-30T14:28:35.273Z,31.29
2023-05-30T14:31:02.379Z,31.41
2023-05-30T14:33:29.419Z,31.34
2023-05-30T14:35:56.194Z,30.89
2023-05-30T14:38:23.605Z,29.94
2023-05-30T14:40:50.531Z,31.11
2023-05-30T14:43:17.613Z,30.62
2023-05-30T14:45:44.416Z,30.65
2023-05-30T14:48:12.626Z,30.67
2023-05-30T14:50:39.301Z,31.75
2023-05-30T14:53:32.646Z,30.95
2023-05-30T14:55:59.617Z,31.17
2023-05-30T14:58:26.966Z,31.47
2023-05-30T15:00:53.695Z,31.42
2023-05-30T15:03:21.989Z,31.85
2023-05-30T15:05:48.677Z,31.85
2023-05-30T15:08:15.246Z,31.70
2023-05-30T15:10:43.099Z,31.36
2023-05-30T15:13:09.949Z,31.40
2023-05-30T15:15:36.581Z,31.76
2023-05-30T15:18:03.313Z,32.22
2023-05-30T15:20:30.082Z,32.44
2023-05-30T15:22:56.677Z,32.74
2023-05-30T15:25:23.180Z,33.02
2023-05-30T15:27:51.227Z,32.60
2023-05-30T15:30:18.001Z,32.96
2023-05-30T15:32:44.552Z,32.80
2023-05-30T15:35:11.110Z,33.10
2023-05-30T15:37:37.633Z,32.16
2023-05-30T15:40:09.404Z,32.78
2023-05-30T15:42:35.985Z,32.35
2023-05-30T15:45:02.567Z,32.80
2023-05-30T15:47:29.270Z,31.65
2023-05-30T15:49:56.667Z,32.38
2023-05-30T15:52:23.402Z,33.03
2023-05-30T15:54:50.877Z,33.30
2023-05-30T15:57:17.431Z,33.19
2023-05-30T15:59:44.061Z,33.16
2023-05-30T16:02:10.630Z,33.00
2023-05-30T16:04:38.090Z,29.69
2023-05-30T16:07:05.140Z,28.33
2023-05-30T16:09:31.965Z,28.10
2023-05-30T16:11:58.628Z,28.66
2023-05-30T16:14:28.531Z,31.20
2023-05-30T16:16:55.485Z,32.26
2023-05-30T16:19:22.380Z,31.17
2023-05-30T16:21:49.254Z,29.52
2023-05-30T16:24:16.064Z,31.26
2023-05-30T16:26:42.736Z,31.45
2023-05-30T16:29:09.470Z,30.84
2023-05-30T16:31:36.348Z,30.42
2023-05-30T16:34:03.320Z,29.49
2023-05-30T16:36:30.291Z,28.93
2023-05-30T16:38:56.893Z,29.03
2023-05-30T16:41:23.707Z,29.01
2023-05-30T16:43:50.899Z,28.84
2023-05-30T16:46:17.719Z,28.43
2023-05-30T16:48:44.411Z,28.41
2023-05-30T16:51:11.226Z,28.13
2023-05-30T16:53:38.090Z,27.32
2023-05-30T16:56:16.693Z,26.10
2023-05-30T16:58:45.483Z,25.67
2023-05-30T17:01:12.308Z,25.48
2023-05-30T17:03:41.526Z,25.11
2023-05-30T17:06:08.902Z,24.86
2023-05-30T17:08:38.842Z,24.80
2023-05-30T17:11:05.682Z,24.38
2023-05-30T17:13:32.406Z,23.92
2023-05-30T17:15:59.108Z,23.89
2023-05-30T17:18:28.595Z,23.69
2023-05-30T17:20:56.434Z,23.68
2023-05-30T17:23:24.470Z,23.39
2023-05-30T17:26:02.069Z,23.54
2023-05-30T17:28:32.592Z,23.48
2023-05-30T17:30:59.568Z,23.28
2023-05-30T17:33:29.146Z,23.39
2023-05-30T17:35:56.932Z,23.41
2023-05-30T17:38:23.652Z,23.36
2023-05-30T17:40:50.612Z,23.24
2023-05-30T17:43:22.051Z,23.05
2023-05-30T17:45:48.771Z,23.09
2023-05-30T17:48:15.506Z,22.96
2023-05-30T17:50:45.221Z,22.85
2023-05-30T17:53:11.899Z,22.84
2023-05-30T17:55:38.770Z,22.59
2023-05-30T17:58:05.417Z,22.62
2023-05-30T18:00:34.577Z,22.38
2023-05-30T18:03:02.788Z,22.36
2023-05-30T18:05:29.587Z,22.19
2023-05-30T18:07:56.271Z,22.05
2023-05-30T18:10:22.927Z,21.89
2023-05-30T18:12:49.558Z,21.72
2023-05-30T18:15:16.328Z,21.54
2023-05-30T18:17:43.017Z,21.32
2023-05-30T18:20:10.265Z,21.24
2023-05-30T18:22:37.004Z,21.14
2023-05-30T18:25:03.984Z,21.16
2023-05-30T18:27:30.724Z,21.03
2023-05-30T18:29:57.518Z,20.88
2023-05-30T18:32:24.318Z,20.71
2023-05-30T18:34:51.122Z,20.73
2023-05-30T18:37:17.805Z,20.57
2023-05-30T18:39:44.724Z,20.50
2023-05-30T18:42:12.721Z,20.46
2023-05-30T18:44:39.405Z,20.38
2023-05-30T18:47:06.443Z,20.40
2023-05-30T18:49:33.324Z,20.35
2023-05-30T18:52:00.048Z,20.20
2023-05-30T18:54:26.741Z,20.00
2023-05-30T18:56:53.560Z,19.99
2023-05-30T18:59:20.375Z,20.00
2023-05-30T19:01:47.137Z,20.20
2023-05-30T19:04:14.498Z,20.26
2023-05-30T19:06:41.211Z,20.13
2023-05-30T19:09:07.931Z,20.22
2023-05-30T19:11:34.617Z,20.30
2023-05-30T19:14:01.710Z,20.38
2023-05-30T19:16:29.119Z,20.38
2023-05-30T19:18:55.779Z,20.43
2023-05-30T19:21:22.497Z,20.39
2023-05-30T19:23:49.126Z,20.30
2023-05-30T19:26:18.340Z,20.13
2023-05-30T19:28:46.354Z,19.96
2023-05-30T19:31:15.391Z,19.94
2023-05-30T19:33:43.163Z,20.09
2023-05-30T19:36:10.784Z,20.04
2023-05-30T19:38:37.957Z,19.78
2023-05-30T19:41:07.424Z,19.85
2023-05-30T19:43:34.945Z,19.89
2023-05-30T19:46:01.956Z,19.80
2023-05-30T19:48:28.698Z,19.62
2023-05-30T19:50:56.206Z,19.44
2023-05-30T19:53:23.086Z,19.60
2023-05-30T19:55:49.758Z,19.54
2023-05-30T19:58:22.330Z,19.48
2023-05-30T20:00:49.326Z,19.50
2023-05-30T20:03:16.545Z,19.48
2023-05-30T20:05:43.457Z,19.44
2023-05-30T20:08:10.554Z,19.39
2023-05-30T20:10:37.511Z,19.32
2023-05-30T20:13:04.652Z,19.48
2023-05-30T20:15:31.731Z,19.46
2023-05-30T20:18:02.428Z,19.39
2023-05-30T20:20:30.020Z,19.45
2023-05-30T20:22:57.769Z,19.34
2023-05-30T20:25:24.695Z,19.41
2023-05-30T20:27:51.709Z,19.32
2023-05-30T20:30:18.724Z,19.41
2023-05-30T20:32:46.481Z,19.39
2023-05-30T20:35:13.266Z,19.32
2023-05-30T20:37:40.022Z,19.38
2023-05-30T20:40:07.299Z,19.32
2023-05-30T20:42:34.418Z,19.29
2023-05-30T20:45:01.237Z,19.28
2023-05-30T20:47:28.499Z,19.26
2023-05-30T20:49:55.295Z,19.23
2023-05-30T20:52:21.973Z,19.13
2023-05-30T20:54:48.604Z,19.12
2023-05-30T20:57:22.938Z,19.15
2023-05-30T20:59:49.680Z,19.04
2023-05-30T21:02:16.564Z,18.98
2023-05-30T21:04:43.973Z,18.97
2023-05-30T21:07:10.912Z,19.01
2023-05-30T21:09:37.680Z,19.04
2023-05-30T21:12:04.834Z,19.02
2023-05-30T21:14:31.620Z,19.04
2023-05-30T21:16:58.262Z,19.01
2023-05-30T21:19:24.944Z,18.87
2023-05-30T21:21:51.597Z,18.72
2023-05-30T21:24:18.325Z,18.61
2023-05-30T21:26:44.963Z,18.54
2023-05-30T21:29:11.812Z,18.50
2023-05-30T21:31:38.641Z,18.48
2023-05-30T21:34:06.205Z,-144.75
2023-05-30T21:36:32.952Z,-144.75
2023-05-30T21:38:59.596Z,-144.75
2023-05-30T21:41:26.827Z,18.52
2023-05-30T21:43:53.586Z,18.44
2023-05-30T21:46:20.298Z,18.32
2023-05-30T21:48:47.062Z,18.27
2023-05-30T21:51:14.033Z,18.10
2023-05-30T21:53:40.793Z,17.91
2023-05-30T21:56:08.093Z,17.83
2023-05-30T21:58:34.860Z,17.69
2023-05-30T22:01:02.005Z,17.60
2023-05-30T22:03:31.238Z,17.62
2023-05-30T22:05:58.884Z,17.72
2023-05-30T22:08:25.609Z,17.84
2023-05-30T22:10:52.947Z,17.87
2023-05-30T22:13:19.878Z,17.85
2023-05-30T22:15:46.535Z,17.79
2023-05-30T22:18:13.381Z,17.75
2023-05-30T22:20:40.186Z,17.72
2023-05-30T22:23:06.935Z,17.66
2023-05-30T22:25:33.614Z,17.63
2023-05-30T22:28:00.541Z,17.61
2023-05-30T22:30:27.273Z,17.68
2023-05-30T22:32:54.009Z,17.67
2023-05-30T22:35:20.827Z,17.75
2023-05-30T22:37:50.217Z,17.77
2023-05-30T22:40:17.306Z,17.73
2023-05-30T22:42:43.980Z,17.67
2023-05-30T22:45:10.871Z,17.52
2023-05-30T22:47:37.559Z,17.54
2023-05-30T22:50:05.053Z,17.55
2023-05-30T22:52:31.862Z,17.59
2023-05-30T22:54:58.473Z,17.65
2023-05-30T22:57:25.190Z,17.56
2023-05-30T22:59:51.826Z,17.60
2023-05-30T23:02:18.647Z,17.72
2023-05-30T23:04:45.610Z,17.79
2023-05-30T23:07:12.252Z,17.60
2023-05-30T23:09:38.912Z,17.53
2023-05-30T23:12:06.437Z,17.35
2023-05-30T23:14:33.032Z,17.25
2023-05-30T23:16:59.630Z,17.35
2023-05-30T23:19:26.276Z,17.32
2023-05-30T23:21:52.943Z,16.98
2023-05-30T23:24:19.684Z,16.88
2023-05-30T23:26:46.312Z,16.92
2023-05-30T23:29:13.048Z,17.01
2023-05-30T23:31:39.959Z,17.21
2023-05-30T23:34:06.531Z,17.15
2023-05-30T23:36:33.184Z,17.15
2023-05-30T23:38:59.773Z,17.07
2023-05-30T23:41:27.061Z,16.96
2023-05-30T23:43:53.914Z,16.79
2023-05-30T23:46:20.581Z,16.78
2023-05-30T23:48:47.238Z,16.77
2023-05-30T23:51:20.424Z,16.80
2023-05-30T23:53:47.094Z,16.69
2023-05-30T23:56:14.014Z,16.67
2023-05-30T23:58:40.813Z,16.68
